Time;durP1;ratioP1;P1;durP2;ratioP2;P2;SDS_P1;SDS_P2;PMS_P1;PMS_P2;Temp;Humidity;BMP_temperature;BMP_pressure;BME280_temperature;BME280_humidity;BME280_pressure;Samples;Min_cycle;Max_cycle;Signal;HPM_P1;HPM_P2
2024/02/19 00:00:12;;;;;;;0.8;0.8;;;;;;;10.71;85.00879;96130.63;;;;
2024/02/19 00:01:13;;;;;;;1;1;;;;;;;10.6;85.25488;96139.08;;;;
2024/02/19 00:02:14;;;;;;;1;1;;;;;;;10.6;85.25488;96139.08;;;;
2024/02/19 00:03:15;;;;;;;1;1;;;;;;;10.6;85.25488;96139.08;;;;
2024/02/19 00:04:17;;;;;;;1;1;;;;;;;10.6;85.25488;96139.08;;;;
2024/02/19 00:05:17;;;;;;;1;1;;;;;;;10.6;85.25488;96139.08;;;;
2024/02/19 00:06:18;;;;;;;1;1;;;;;;;10.6;85.25488;96139.08;;;;
2024/02/19 00:07:18;;;;;;;1;1;;;;;;;10.6;85.25488;96139.08;;;;
2024/02/19 00:08:19;;;;;;;1;1;;;;;;;10.6;85.25488;96139.08;;;;
2024/02/19 00:09:19;;;;;;;1;1;;;;;;;10.6;85.25488;96139.08;;;;
2024/02/19 00:10:20;;;;;;;1;1;;;;;;;10.6;85.25488;96139.08;;;;
2024/02/19 00:11:20;;;;;;;1.4;1.4;;;;;;;10.54;84.91113;96135.47;;;;
2024/02/19 00:12:21;;;;;;;1.4;1.4;;;;;;;10.54;84.91113;96135.47;;;;
2024/02/19 00:13:21;;;;;;;1.4;1.4;;;;;;;10.54;84.91113;96135.47;;;;
2024/02/19 00:14:22;;;;;;;1.4;1.4;;;;;;;10.54;84.91113;96135.47;;;;
2024/02/19 00:15:22;;;;;;;1.4;1.4;;;;;;;10.54;84.91113;96135.47;;;;
2024/02/19 00:16:22;;;;;;;1.4;1.4;;;;;;;10.54;84.91113;96135.47;;;;
2024/02/19 00:17:23;;;;;;;1.4;1.4;;;;;;;10.54;84.91113;96135.47;;;;
2024/02/19 00:18:24;;;;;;;1.4;1.4;;;;;;;10.54;84.91113;96135.47;;;;
2024/02/19 00:19:24;;;;;;;1.4;1.4;;;;;;;10.54;84.91113;96135.47;;;;
2024/02/19 00:20:25;;;;;;;1.4;1.4;;;;;;;10.54;84.91113;96135.47;;;;
2024/02/19 00:21:25;;;;;;;1.4;1.4;;;;;;;10.54;84.91113;96135.47;;;;
2024/02/19 00:22:25;;;;;;;0.6;0.6;;;;;;;10.43;84.9541;96135.47;;;;
2024/02/19 00:23:26;;;;;;;0.6;0.6;;;;;;;10.43;84.9541;96135.47;;;;
2024/02/19 00:24:27;;;;;;;0.6;0.6;;;;;;;10.43;84.9541;96135.47;;;;
2024/02/19 00:25:29;;;;;;;0.6;0.6;;;;;;;10.43;84.9541;96135.47;;;;
2024/02/19 00:26:31;;;;;;;0.6;0.6;;;;;;;10.43;84.9541;96135.47;;;;
2024/02/19 00:27:31;;;;;;;0.6;0.6;;;;;;;10.43;84.9541;96135.47;;;;
2024/02/19 00:28:32;;;;;;;0.6;0.6;;;;;;;10.43;84.9541;96135.47;;;;
2024/02/19 00:29:32;;;;;;;0.6;0.6;;;;;;;10.43;84.9541;96135.47;;;;
2024/02/19 00:30:33;;;;;;;0.6;0.6;;;;;;;10.43;84.9541;96135.47;;;;
2024/02/19 00:31:34;;;;;;;0.6;0.6;;;;;;;10.43;84.9541;96135.47;;;;
2024/02/19 00:32:34;;;;;;;0.6;0.6;;;;;;;10.43;84.9541;96135.47;;;;
2024/02/19 00:33:35;;;;;;;0.6;0.6;;;;;;;10.38;85.0625;96128.2;;;;
2024/02/19 00:34:37;;;;;;;0.6;0.6;;;;;;;10.38;85.0625;96128.2;;;;
2024/02/19 00:35:42;;;;;;;0.6;0.6;;;;;;;10.38;85.0625;96128.2;;;;
2024/02/19 00:36:42;;;;;;;0.6;0.6;;;;;;;10.38;85.0625;96128.2;;;;
2024/02/19 00:37:42;;;;;;;0.6;0.6;;;;;;;10.38;85.0625;96128.2;;;;
2024/02/19 00:38:43;;;;;;;0.6;0.6;;;;;;;10.38;85.0625;96128.2;;;;
2024/02/19 00:39:43;;;;;;;0.6;0.6;;;;;;;10.38;85.0625;96128.2;;;;
2024/02/19 00:40:45;;;;;;;0.6;0.6;;;;;;;10.38;85.0625;96128.2;;;;
2024/02/19 00:41:46;;;;;;;0.6;0.6;;;;;;;10.38;85.0625;96128.2;;;;
2024/02/19 00:42:46;;;;;;;0.6;0.6;;;;;;;10.38;85.0625;96128.2;;;;
2024/02/19 00:43:47;;;;;;;0.6;0.6;;;;;;;10.32;85.26465;96125.41;;;;
2024/02/19 00:44:47;;;;;;;0.6;0.6;;;;;;;10.32;85.26465;96125.41;;;;
2024/02/19 00:45:48;;;;;;;0.6;0.6;;;;;;;10.32;85.26465;96125.41;;;;
2024/02/19 00:46:49;;;;;;;0.6;0.6;;;;;;;10.32;85.26465;96125.41;;;;
2024/02/19 00:47:49;;;;;;;0.6;0.6;;;;;;;10.32;85.26465;96125.41;;;;
2024/02/19 00:48:50;;;;;;;0.6;0.6;;;;;;;10.32;85.26465;96125.41;;;;
2024/02/19 00:49:50;;;;;;;0.6;0.6;;;;;;;10.32;85.26465;96125.41;;;;
2024/02/19 00:50:51;;;;;;;0.6;0.6;;;;;;;10.32;85.26465;96125.41;;;;
2024/02/19 00:51:52;;;;;;;0.6;0.6;;;;;;;10.32;85.26465;96125.41;;;;
2024/02/19 00:52:52;;;;;;;0.6;0.6;;;;;;;10.32;85.26465;96125.41;;;;
2024/02/19 00:53:53;;;;;;;0.6;0.6;;;;;;;10.32;85.26465;96125.41;;;;
2024/02/19 00:54:53;;;;;;;0.6;0.6;;;;;;;10.3;85.16602;96115.03;;;;
2024/02/19 00:55:54;;;;;;;0.6;0.6;;;;;;;10.3;85.16602;96115.03;;;;
2024/02/19 00:56:54;;;;;;;0.6;0.6;;;;;;;10.3;85.16602;96115.03;;;;
2024/02/19 00:57:55;;;;;;;0.6;0.6;;;;;;;10.3;85.16602;96115.03;;;;
2024/02/19 00:58:55;;;;;;;0.6;0.6;;;;;;;10.3;85.16602;96115.03;;;;
2024/02/19 00:59:55;;;;;;;0.6;0.6;;;;;;;10.3;85.16602;96115.03;;;;
2024/02/19 01:00:58;;;;;;;0.6;0.6;;;;;;;10.3;85.16602;96115.03;;;;
2024/02/19 01:01:58;;;;;;;0.6;0.6;;;;;;;10.3;85.16602;96115.03;;;;
2024/02/19 01:02:59;;;;;;;0.6;0.6;;;;;;;10.3;85.16602;96115.03;;;;
2024/02/19 01:03:59;;;;;;;0.6;0.6;;;;;;;10.3;85.16602;96115.03;;;;
2024/02/19 01:05:00;;;;;;;0.6;0.6;;;;;;;10.2;85.51074;96117.17;;;;
2024/02/19 01:06:00;;;;;;;0.6;0.6;;;;;;;10.2;85.51074;96117.17;;;;
2024/02/19 01:07:01;;;;;;;0.6;0.6;;;;;;;10.2;85.51074;96117.17;;;;
2024/02/19 01:08:02;;;;;;;0.6;0.6;;;;;;;10.2;85.51074;96117.17;;;;
2024/02/19 01:09:03;;;;;;;0.6;0.6;;;;;;;10.2;85.51074;96117.17;;;;
2024/02/19 01:10:03;;;;;;;0.6;0.6;;;;;;;10.2;85.51074;96117.17;;;;
2024/02/19 01:11:05;;;;;;;0.6;0.6;;;;;;;10.2;85.51074;96117.17;;;;
2024/02/19 01:12:05;;;;;;;0.6;0.6;;;;;;;10.2;85.51074;96117.17;;;;
2024/02/19 01:13:06;;;;;;;0.6;0.6;;;;;;;10.2;85.51074;96117.17;;;;
2024/02/19 01:14:06;;;;;;;0.6;0.6;;;;;;;10.2;85.51074;96117.17;;;;
2024/02/19 01:15:07;;;;;;;0.6;0.6;;;;;;;10.2;85.51074;96117.17;;;;
2024/02/19 01:16:08;;;;;;;0.55;0.55;;;;;;;10.13;85.76367;96131.33;;;;
2024/02/19 01:17:09;;;;;;;0.55;0.55;;;;;;;10.13;85.76367;96131.33;;;;
2024/02/19 01:18:09;;;;;;;0.55;0.55;;;;;;;10.13;85.76367;96131.33;;;;
2024/02/19 01:19:10;;;;;;;0.55;0.55;;;;;;;10.13;85.76367;96131.33;;;;
2024/02/19 01:20:10;;;;;;;0.55;0.55;;;;;;;10.13;85.76367;96131.33;;;;
2024/02/19 01:21:11;;;;;;;0.55;0.55;;;;;;;10.13;85.76367;96131.33;;;;
2024/02/19 01:22:12;;;;;;;0.55;0.55;;;;;;;10.13;85.76367;96131.33;;;;
2024/02/19 01:23:13;;;;;;;0.55;0.55;;;;;;;10.13;85.76367;96131.33;;;;
2024/02/19 01:24:13;;;;;;;0.55;0.55;;;;;;;10.13;85.76367;96131.33;;;;
2024/02/19 01:25:14;;;;;;;0.55;0.55;;;;;;;10.13;85.76367;96131.33;;;;
2024/02/19 01:26:16;;;;;;;0.7;0.7;;;;;;;10.11;85.64258;96120.12;;;;
2024/02/19 01:27:18;;;;;;;0.7;0.7;;;;;;;10.11;85.64258;96120.12;;;;
2024/02/19 01:28:20;;;;;;;0.7;0.7;;;;;;;10.11;85.64258;96120.12;;;;
2024/02/19 01:29:20;;;;;;;0.7;0.7;;;;;;;10.11;85.64258;96120.12;;;;
2024/02/19 01:30:21;;;;;;;0.7;0.7;;;;;;;10.11;85.64258;96120.12;;;;
2024/02/19 01:31:22;;;;;;;0.7;0.7;;;;;;;10.11;85.64258;96120.12;;;;
2024/02/19 01:32:23;;;;;;;0.7;0.7;;;;;;;10.11;85.64258;96120.12;;;;
2024/02/19 01:33:23;;;;;;;0.7;0.7;;;;;;;10.11;85.64258;96120.12;;;;
2024/02/19 01:34:24;;;;;;;0.7;0.7;;;;;;;10.11;85.64258;96120.12;;;;
2024/02/19 01:35:24;;;;;;;0.7;0.7;;;;;;;10.11;85.64258;96120.12;;;;
2024/02/19 01:36:25;;;;;;;0.7;0.7;;;;;;;10.11;85.64258;96120.12;;;;
2024/02/19 01:37:25;;;;;;;0.6;0.6;;;;;;;10.06;85.64355;96121.57;;;;
2024/02/19 01:38:26;;;;;;;0.6;0.6;;;;;;;10.06;85.64355;96121.57;;;;
2024/02/19 01:39:26;;;;;;;0.6;0.6;;;;;;;10.06;85.64355;96121.57;;;;
2024/02/19 01:40:27;;;;;;;0.6;0.6;;;;;;;10.06;85.64355;96121.57;;;;
2024/02/19 01:41:27;;;;;;;0.6;0.6;;;;;;;10.06;85.64355;96121.57;;;;
2024/02/19 01:42:29;;;;;;;0.6;0.6;;;;;;;10.06;85.64355;96121.57;;;;
2024/02/19 01:43:30;;;;;;;0.6;0.6;;;;;;;10.06;85.64355;96121.57;;;;
2024/02/19 01:44:31;;;;;;;0.6;0.6;;;;;;;10.06;85.64355;96121.57;;;;
2024/02/19 01:45:31;;;;;;;0.6;0.6;;;;;;;10.06;85.64355;96121.57;;;;
2024/02/19 01:46:33;;;;;;;0.6;0.6;;;;;;;10.06;85.64355;96121.57;;;;
2024/02/19 01:47:34;;;;;;;0.6;0.6;;;;;;;9.98;85.64844;96127.88;;;;
2024/02/19 01:48:36;;;;;;;0.6;0.6;;;;;;;9.98;85.64844;96127.88;;;;
2024/02/19 01:49:38;;;;;;;0.6;0.6;;;;;;;9.98;85.64844;96127.88;;;;
2024/02/19 01:50:38;;;;;;;0.6;0.6;;;;;;;9.98;85.64844;96127.88;;;;
2024/02/19 01:51:40;;;;;;;0.6;0.6;;;;;;;9.98;85.64844;96127.88;;;;
2024/02/19 01:52:42;;;;;;;0.6;0.6;;;;;;;9.98;85.64844;96127.88;;;;
2024/02/19 01:53:43;;;;;;;0.6;0.6;;;;;;;9.98;85.64844;96127.88;;;;
2024/02/19 01:54:44;;;;;;;0.6;0.6;;;;;;;9.98;85.64844;96127.88;;;;
2024/02/19 01:55:48;;;;;;;0.6;0.6;;;;;;;9.98;85.64844;96127.88;;;;
2024/02/19 01:56:49;;;;;;;0.6;0.6;;;;;;;9.98;85.64844;96127.88;;;;
2024/02/19 01:57:50;;;;;;;0.6;0.6;;;;;;;9.98;85.64844;96127.88;;;;
2024/02/19 01:58:51;;;;;;;0.8;0.8;;;;;;;9.94;85.53418;96120.42;;;;
2024/02/19 01:59:52;;;;;;;0.8;0.8;;;;;;;9.94;85.53418;96120.42;;;;
2024/02/19 02:00:53;;;;;;;0.8;0.8;;;;;;;9.94;85.53418;96120.42;;;;
2024/02/19 02:01:55;;;;;;;0.8;0.8;;;;;;;9.94;85.53418;96120.42;;;;
2024/02/19 02:02:56;;;;;;;0.8;0.8;;;;;;;9.94;85.53418;96120.42;;;;
2024/02/19 02:03:56;;;;;;;0.8;0.8;;;;;;;9.94;85.53418;96120.42;;;;
2024/02/19 02:04:58;;;;;;;0.8;0.8;;;;;;;9.94;85.53418;96120.42;;;;
2024/02/19 02:05:59;;;;;;;0.8;0.8;;;;;;;9.94;85.53418;96120.42;;;;
2024/02/19 02:06:59;;;;;;;0.8;0.8;;;;;;;9.94;85.53418;96120.42;;;;
2024/02/19 02:08:02;;;;;;;0.8;0.8;;;;;;;9.94;85.53418;96120.42;;;;
2024/02/19 02:09:07;;;;;;;0.6;0.6;;;;;;;9.87;85.63867;96118.23;;;;
2024/02/19 02:10:07;;;;;;;0.6;0.6;;;;;;;9.87;85.63867;96118.23;;;;
2024/02/19 02:11:08;;;;;;;0.6;0.6;;;;;;;9.87;85.63867;96118.23;;;;
2024/02/19 02:12:09;;;;;;;0.6;0.6;;;;;;;9.87;85.63867;96118.23;;;;
2024/02/19 02:13:09;;;;;;;0.6;0.6;;;;;;;9.87;85.63867;96118.23;;;;
2024/02/19 02:14:10;;;;;;;0.6;0.6;;;;;;;9.87;85.63867;96118.23;;;;
2024/02/19 02:15:10;;;;;;;0.6;0.6;;;;;;;9.87;85.63867;96118.23;;;;
2024/02/19 02:16:11;;;;;;;0.6;0.6;;;;;;;9.87;85.63867;96118.23;;;;
2024/02/19 02:17:11;;;;;;;0.6;0.6;;;;;;;9.87;85.63867;96118.23;;;;
2024/02/19 02:18:14;;;;;;;0.6;0.6;;;;;;;9.87;85.63867;96118.23;;;;
2024/02/19 02:19:15;;;;;;;0.6;0.6;;;;;;;9.87;85.63867;96118.23;;;;
2024/02/19 02:20:15;;;;;;;0.7;0.7;;;;;;;9.72;85.96289;96121.81;;;;
2024/02/19 02:21:16;;;;;;;0.7;0.7;;;;;;;9.72;85.96289;96121.81;;;;
2024/02/19 02:22:17;;;;;;;0.7;0.7;;;;;;;9.72;85.96289;96121.81;;;;
2024/02/19 02:23:17;;;;;;;0.7;0.7;;;;;;;9.72;85.96289;96121.81;;;;
2024/02/19 02:24:20;;;;;;;0.7;0.7;;;;;;;9.72;85.96289;96121.81;;;;
2024/02/19 02:25:21;;;;;;;0.7;0.7;;;;;;;9.72;85.96289;96121.81;;;;
2024/02/19 02:26:22;;;;;;;0.7;0.7;;;;;;;9.72;85.96289;96121.81;;;;
2024/02/19 02:27:22;;;;;;;0.7;0.7;;;;;;;9.72;85.96289;96121.81;;;;
2024/02/19 02:28:23;;;;;;;0.7;0.7;;;;;;;9.72;85.96289;96121.81;;;;
2024/02/19 02:29:24;;;;;;;0.7;0.7;;;;;;;9.72;85.96289;96121.81;;;;
2024/02/19 02:30:24;;;;;;;0.7;0.7;;;;;;;9.72;85.96289;96121.81;;;;
2024/02/19 02:31:25;;;;;;;0.6;0.6;;;;;;;9.67;85.86621;96117.18;;;;
2024/02/19 02:32:25;;;;;;;0.6;0.6;;;;;;;9.67;85.86621;96117.18;;;;
2024/02/19 02:33:26;;;;;;;0.6;0.6;;;;;;;9.67;85.86621;96117.18;;;;
2024/02/19 02:34:26;;;;;;;0.6;0.6;;;;;;;9.67;85.86621;96117.18;;;;
2024/02/19 02:35:28;;;;;;;0.6;0.6;;;;;;;9.67;85.86621;96117.18;;;;
2024/02/19 02:36:29;;;;;;;0.6;0.6;;;;;;;9.67;85.86621;96117.18;;;;
2024/02/19 02:37:30;;;;;;;0.6;0.6;;;;;;;9.67;85.86621;96117.18;;;;
2024/02/19 02:38:31;;;;;;;0.6;0.6;;;;;;;9.67;85.86621;96117.18;;;;
2024/02/19 02:39:31;;;;;;;0.6;0.6;;;;;;;9.67;85.86621;96117.18;;;;
2024/02/19 02:40:32;;;;;;;0.6;0.6;;;;;;;9.67;85.86621;96117.18;;;;
2024/02/19 02:41:33;;;;;;;0.5;0.5;;;;;;;9.69;85.59375;96119.94;;;;
2024/02/19 02:42:33;;;;;;;0.5;0.5;;;;;;;9.69;85.59375;96119.94;;;;
2024/02/19 02:43:34;;;;;;;0.5;0.5;;;;;;;9.69;85.59375;96119.94;;;;
2024/02/19 02:44:34;;;;;;;0.5;0.5;;;;;;;9.69;85.59375;96119.94;;;;
2024/02/19 02:45:35;;;;;;;0.5;0.5;;;;;;;9.69;85.59375;96119.94;;;;
2024/02/19 02:46:35;;;;;;;0.5;0.5;;;;;;;9.69;85.59375;96119.94;;;;
2024/02/19 02:47:36;;;;;;;0.5;0.5;;;;;;;9.69;85.59375;96119.94;;;;
2024/02/19 02:48:36;;;;;;;0.5;0.5;;;;;;;9.69;85.59375;96119.94;;;;
2024/02/19 02:49:37;;;;;;;0.5;0.5;;;;;;;9.69;85.59375;96119.94;;;;
2024/02/19 02:50:37;;;;;;;0.5;0.5;;;;;;;9.69;85.59375;96119.94;;;;
2024/02/19 02:51:38;;;;;;;0.5;0.5;;;;;;;9.69;85.59375;96119.94;;;;
2024/02/19 02:52:38;;;;;;;0.5;0.5;;;;;;;9.69;85.59375;96119.94;;;;
2024/02/19 02:53:39;;;;;;;0.5;0.5;;;;;;;9.69;85.59375;96119.94;;;;
2024/02/19 02:54:39;;;;;;;0.5;0.5;;;;;;;9.69;85.59375;96119.94;;;;
2024/02/19 02:55:42;;;;;;;0.5;0.5;;;;;;;9.69;85.59375;96119.94;;;;
2024/02/19 02:56:42;;;;;;;0.5;0.5;;;;;;;9.69;85.59375;96119.94;;;;
2024/02/19 02:57:43;;;;;;;0.5;0.5;;;;;;;9.69;85.59375;96119.94;;;;
2024/02/19 02:58:43;;;;;;;0.5;0.5;;;;;;;9.69;85.59375;96119.94;;;;
2024/02/19 02:59:44;;;;;;;0.5;0.5;;;;;;;9.69;85.59375;96119.94;;;;
2024/02/19 03:00:45;;;;;;;0.5;0.5;;;;;;;9.69;85.59375;96119.94;;;;
2024/02/19 03:01:45;;;;;;;0.5;0.5;;;;;;;9.69;85.59375;96119.94;;;;
2024/02/19 03:02:45;;;;;;;0.6;0.6;;;;;;;9.68;85.45117;96116.16;;;;
2024/02/19 03:03:46;;;;;;;0.6;0.6;;;;;;;9.68;85.45117;96116.16;;;;
2024/02/19 03:04:47;;;;;;;0.6;0.6;;;;;;;9.68;85.45117;96116.16;;;;
2024/02/19 03:05:47;;;;;;;0.6;0.6;;;;;;;9.68;85.45117;96116.16;;;;
2024/02/19 03:06:48;;;;;;;0.6;0.6;;;;;;;9.68;85.45117;96116.16;;;;
2024/02/19 03:07:48;;;;;;;0.6;0.6;;;;;;;9.68;85.45117;96116.16;;;;
2024/02/19 03:08:49;;;;;;;0.6;0.6;;;;;;;9.68;85.45117;96116.16;;;;
2024/02/19 03:09:49;;;;;;;0.6;0.6;;;;;;;9.68;85.45117;96116.16;;;;
2024/02/19 03:10:50;;;;;;;0.6;0.6;;;;;;;9.68;85.45117;96116.16;;;;
2024/02/19 03:11:51;;;;;;;0.6;0.6;;;;;;;9.68;85.45117;96116.16;;;;
2024/02/19 03:12:51;;;;;;;0.6;0.6;;;;;;;9.68;85.45117;96116.16;;;;
2024/02/19 03:13:52;;;;;;;0.6;0.6;;;;;;;9.68;85.45117;96116.16;;;;
2024/02/19 03:14:54;;;;;;;0.6;0.6;;;;;;;9.68;85.45117;96116.16;;;;
2024/02/19 03:15:55;;;;;;;0.6;0.6;;;;;;;9.68;85.45117;96116.16;;;;
2024/02/19 03:16:55;;;;;;;0.6;0.6;;;;;;;9.68;85.45117;96116.16;;;;
2024/02/19 03:17:56;;;;;;;0.6;0.6;;;;;;;9.68;85.45117;96116.16;;;;
2024/02/19 03:18:56;;;;;;;0.6;0.6;;;;;;;9.68;85.45117;96116.16;;;;
2024/02/19 03:19:57;;;;;;;0.6;0.6;;;;;;;9.68;85.45117;96116.16;;;;
2024/02/19 03:20:57;;;;;;;0.6;0.6;;;;;;;9.68;85.45117;96116.16;;;;
2024/02/19 03:21:58;;;;;;;0.6;0.6;;;;;;;9.68;85.45117;96116.16;;;;
2024/02/19 03:22:58;;;;;;;0.6;0.6;;;;;;;9.68;85.45117;96116.16;;;;
2024/02/19 03:23:59;;;;;;;0.6;0.6;;;;;;;9.5;86.38965;96115.25;;;;
2024/02/19 03:24:59;;;;;;;0.6;0.6;;;;;;;9.5;86.38965;96115.25;;;;
2024/02/19 03:26:00;;;;;;;0.6;0.6;;;;;;;9.5;86.38965;96115.25;;;;
2024/02/19 03:27:04;;;;;;;0.6;0.6;;;;;;;9.5;86.38965;96115.25;;;;
2024/02/19 03:28:04;;;;;;;0.6;0.6;;;;;;;9.5;86.38965;96115.25;;;;
2024/02/19 03:29:05;;;;;;;0.6;0.6;;;;;;;9.5;86.38965;96115.25;;;;
2024/02/19 03:30:10;;;;;;;0.6;0.6;;;;;;;9.5;86.38965;96115.25;;;;
2024/02/19 03:31:12;;;;;;;0.6;0.6;;;;;;;9.5;86.38965;96115.25;;;;
2024/02/19 03:32:12;;;;;;;0.6;0.6;;;;;;;9.5;86.38965;96115.25;;;;
2024/02/19 03:33:13;;;;;;;0.6;0.6;;;;;;;9.5;86.38965;96115.25;;;;
2024/02/19 03:34:13;;;;;;;0.6;0.6;;;;;;;9.5;86.38965;96115.25;;;;
2024/02/19 03:35:14;;;;;;;0.5;0.5;;;;;;;9.51;86.31641;96113.44;;;;
2024/02/19 03:36:14;;;;;;;0.5;0.5;;;;;;;9.51;86.31641;96113.44;;;;
2024/02/19 03:37:15;;;;;;;0.5;0.5;;;;;;;9.51;86.31641;96113.44;;;;
2024/02/19 03:38:16;;;;;;;0.5;0.5;;;;;;;9.51;86.31641;96113.44;;;;
2024/02/19 03:39:16;;;;;;;0.5;0.5;;;;;;;9.51;86.31641;96113.44;;;;
2024/02/19 03:40:17;;;;;;;0.5;0.5;;;;;;;9.51;86.31641;96113.44;;;;
2024/02/19 03:41:18;;;;;;;0.5;0.5;;;;;;;9.51;86.31641;96113.44;;;;
2024/02/19 03:42:19;;;;;;;0.5;0.5;;;;;;;9.51;86.31641;96113.44;;;;
2024/02/19 03:43:19;;;;;;;0.5;0.5;;;;;;;9.51;86.31641;96113.44;;;;
2024/02/19 03:44:20;;;;;;;0.5;0.5;;;;;;;9.51;86.31641;96113.44;;;;
2024/02/19 03:45:21;;;;;;;0.5;0.5;;;;;;;9.51;86.31641;96113.44;;;;
2024/02/19 03:46:22;;;;;;;0.5;0.5;;;;;;;9.57;86.25391;96127.62;;;;
2024/02/19 03:47:22;;;;;;;0.5;0.5;;;;;;;9.57;86.25391;96127.62;;;;
2024/02/19 03:48:23;;;;;;;0.5;0.5;;;;;;;9.57;86.25391;96127.62;;;;
2024/02/19 03:49:25;;;;;;;0.5;0.5;;;;;;;9.57;86.25391;96127.62;;;;
2024/02/19 03:50:25;;;;;;;0.5;0.5;;;;;;;9.57;86.25391;96127.62;;;;
2024/02/19 03:51:26;;;;;;;0.5;0.5;;;;;;;9.57;86.25391;96127.62;;;;
2024/02/19 03:52:26;;;;;;;0.5;0.5;;;;;;;9.57;86.25391;96127.62;;;;
2024/02/19 03:53:27;;;;;;;0.5;0.5;;;;;;;9.57;86.25391;96127.62;;;;
2024/02/19 03:54:27;;;;;;;0.5;0.5;;;;;;;9.57;86.25391;96127.62;;;;
2024/02/19 03:55:28;;;;;;;0.5;0.5;;;;;;;9.57;86.25391;96127.62;;;;
2024/02/19 03:56:28;;;;;;;0.5;0.5;;;;;;;9.61;86.03711;96126.26;;;;
2024/02/19 03:57:29;;;;;;;0.5;0.5;;;;;;;9.61;86.03711;96126.26;;;;
2024/02/19 03:58:29;;;;;;;0.5;0.5;;;;;;;9.61;86.03711;96126.26;;;;
2024/02/19 03:59:31;;;;;;;0.5;0.5;;;;;;;9.61;86.03711;96126.26;;;;
2024/02/19 04:00:31;;;;;;;0.5;0.5;;;;;;;9.61;86.03711;96126.26;;;;
2024/02/19 04:01:32;;;;;;;0.5;0.5;;;;;;;9.61;86.03711;96126.26;;;;
2024/02/19 04:02:32;;;;;;;0.5;0.5;;;;;;;9.61;86.03711;96126.26;;;;
2024/02/19 04:03:33;;;;;;;0.5;0.5;;;;;;;9.61;86.03711;96126.26;;;;
2024/02/19 04:04:34;;;;;;;0.5;0.5;;;;;;;9.61;86.03711;96126.26;;;;
2024/02/19 04:05:34;;;;;;;0.5;0.5;;;;;;;9.61;86.03711;96126.26;;;;
2024/02/19 04:06:35;;;;;;;0.5;0.5;;;;;;;9.61;86.03711;96126.26;;;;
2024/02/19 04:07:35;;;;;;;0.5;0.5;;;;;;;9.65;86.09766;96131.96;;;;
2024/02/19 04:08:36;;;;;;;0.5;0.5;;;;;;;9.65;86.09766;96131.96;;;;
2024/02/19 04:09:38;;;;;;;0.5;0.5;;;;;;;9.65;86.09766;96131.96;;;;
2024/02/19 04:10:39;;;;;;;0.5;0.5;;;;;;;9.65;86.09766;96131.96;;;;
2024/02/19 04:11:40;;;;;;;0.5;0.5;;;;;;;9.65;86.09766;96131.96;;;;
2024/02/19 04:12:41;;;;;;;0.5;0.5;;;;;;;9.65;86.09766;96131.96;;;;
2024/02/19 04:13:41;;;;;;;0.5;0.5;;;;;;;9.65;86.09766;96131.96;;;;
2024/02/19 04:14:42;;;;;;;0.5;0.5;;;;;;;9.65;86.09766;96131.96;;;;
2024/02/19 04:15:42;;;;;;;0.5;0.5;;;;;;;9.65;86.09766;96131.96;;;;
2024/02/19 04:16:43;;;;;;;0.5;0.5;;;;;;;9.65;86.09766;96131.96;;;;
2024/02/19 04:17:44;;;;;;;0.6;0.6;;;;;;;9.7;85.91602;96135.69;;;;
2024/02/19 04:18:46;;;;;;;0.6;0.6;;;;;;;9.7;85.91602;96135.69;;;;
2024/02/19 04:19:46;;;;;;;0.6;0.6;;;;;;;9.7;85.91602;96135.69;;;;
2024/02/19 04:20:47;;;;;;;0.6;0.6;;;;;;;9.7;85.91602;96135.69;;;;
2024/02/19 04:21:47;;;;;;;0.6;0.6;;;;;;;9.7;85.91602;96135.69;;;;
2024/02/19 04:22:48;;;;;;;0.6;0.6;;;;;;;9.7;85.91602;96135.69;;;;
2024/02/19 04:23:48;;;;;;;0.6;0.6;;;;;;;9.7;85.91602;96135.69;;;;
2024/02/19 04:24:49;;;;;;;0.6;0.6;;;;;;;9.7;85.91602;96135.69;;;;
2024/02/19 04:25:49;;;;;;;0.6;0.6;;;;;;;9.7;85.91602;96135.69;;;;
2024/02/19 04:26:50;;;;;;;0.6;0.6;;;;;;;9.7;85.91602;96135.69;;;;
2024/02/19 04:27:50;;;;;;;0.6;0.6;;;;;;;9.7;85.91602;96135.69;;;;
2024/02/19 04:28:53;;;;;;;0.5;0.5;;;;;;;9.75;85.89355;96128.45;;;;
2024/02/19 04:29:53;;;;;;;0.5;0.5;;;;;;;9.75;85.89355;96128.45;;;;
2024/02/19 04:30:54;;;;;;;0.5;0.5;;;;;;;9.75;85.89355;96128.45;;;;
2024/02/19 04:31:54;;;;;;;0.5;0.5;;;;;;;9.75;85.89355;96128.45;;;;
2024/02/19 04:32:55;;;;;;;0.5;0.5;;;;;;;9.75;85.89355;96128.45;;;;
2024/02/19 04:33:56;;;;;;;0.5;0.5;;;;;;;9.75;85.89355;96128.45;;;;
2024/02/19 04:34:57;;;;;;;0.5;0.5;;;;;;;9.75;85.89355;96128.45;;;;
2024/02/19 04:35:57;;;;;;;0.5;0.5;;;;;;;9.75;85.89355;96128.45;;;;
2024/02/19 04:36:58;;;;;;;0.5;0.5;;;;;;;9.75;85.89355;96128.45;;;;
2024/02/19 04:37:58;;;;;;;0.5;0.5;;;;;;;9.75;85.89355;96128.45;;;;
2024/02/19 04:38:59;;;;;;;0.55;0.55;;;;;;;9.92;85.74414;96136.15;;;;
2024/02/19 04:39:59;;;;;;;0.55;0.55;;;;;;;9.92;85.74414;96136.15;;;;
2024/02/19 04:41:00;;;;;;;0.55;0.55;;;;;;;9.92;85.74414;96136.15;;;;
2024/02/19 04:42:00;;;;;;;0.55;0.55;;;;;;;9.92;85.74414;96136.15;;;;
2024/02/19 04:43:01;;;;;;;0.55;0.55;;;;;;;9.92;85.74414;96136.15;;;;
2024/02/19 04:44:02;;;;;;;0.55;0.55;;;;;;;9.92;85.74414;96136.15;;;;
2024/02/19 04:45:03;;;;;;;0.55;0.55;;;;;;;9.92;85.74414;96136.15;;;;
2024/02/19 04:46:05;;;;;;;0.55;0.55;;;;;;;9.92;85.74414;96136.15;;;;
2024/02/19 04:47:05;;;;;;;0.55;0.55;;;;;;;9.92;85.74414;96136.15;;;;
2024/02/19 04:48:06;;;;;;;0.55;0.55;;;;;;;9.92;85.74414;96136.15;;;;
2024/02/19 04:49:07;;;;;;;0.55;0.55;;;;;;;9.92;85.74414;96136.15;;;;
2024/02/19 04:50:08;;;;;;;0.5;0.5;;;;;;;9.86;86.1709;96129.36;;;;
2024/02/19 04:51:09;;;;;;;0.5;0.5;;;;;;;9.86;86.1709;96129.36;;;;
2024/02/19 04:52:10;;;;;;;0.5;0.5;;;;;;;9.86;86.1709;96129.36;;;;
2024/02/19 04:53:10;;;;;;;0.5;0.5;;;;;;;9.86;86.1709;96129.36;;;;
2024/02/19 04:54:10;;;;;;;0.5;0.5;;;;;;;9.86;86.1709;96129.36;;;;
2024/02/19 04:55:11;;;;;;;0.5;0.5;;;;;;;9.86;86.1709;96129.36;;;;
2024/02/19 04:56:12;;;;;;;0.5;0.5;;;;;;;9.86;86.1709;96129.36;;;;
2024/02/19 04:57:13;;;;;;;0.5;0.5;;;;;;;9.86;86.1709;96129.36;;;;
2024/02/19 04:58:14;;;;;;;0.5;0.5;;;;;;;9.86;86.1709;96129.36;;;;
2024/02/19 04:59:14;;;;;;;0.5;0.5;;;;;;;9.86;86.1709;96129.36;;;;
2024/02/19 05:00:14;;;;;;;0.5;0.5;;;;;;;9.86;86.1709;96129.36;;;;
2024/02/19 05:01:15;;;;;;;0.6;0.6;;;;;;;9.81;86.70703;96127.28;;;;
2024/02/19 05:02:16;;;;;;;0.6;0.6;;;;;;;9.81;86.70703;96127.28;;;;
2024/02/19 05:03:17;;;;;;;0.6;0.6;;;;;;;9.81;86.70703;96127.28;;;;
2024/02/19 05:04:18;;;;;;;0.6;0.6;;;;;;;9.81;86.70703;96127.28;;;;
2024/02/19 05:05:18;;;;;;;0.6;0.6;;;;;;;9.81;86.70703;96127.28;;;;
2024/02/19 05:06:19;;;;;;;0.6;0.6;;;;;;;9.81;86.70703;96127.28;;;;
2024/02/19 05:07:19;;;;;;;0.6;0.6;;;;;;;9.81;86.70703;96127.28;;;;
2024/02/19 05:08:19;;;;;;;0.6;0.6;;;;;;;9.81;86.70703;96127.28;;;;
2024/02/19 05:09:20;;;;;;;0.6;0.6;;;;;;;9.81;86.70703;96127.28;;;;
2024/02/19 05:10:21;;;;;;;0.6;0.6;;;;;;;9.81;86.70703;96127.28;;;;
2024/02/19 05:11:21;;;;;;;0.5;0.5;;;;;;;9.79;86.85352;96111.75;;;;
2024/02/19 05:12:22;;;;;;;0.5;0.5;;;;;;;9.79;86.85352;96111.75;;;;
2024/02/19 05:13:22;;;;;;;0.5;0.5;;;;;;;9.79;86.85352;96111.75;;;;
2024/02/19 05:14:23;;;;;;;0.5;0.5;;;;;;;9.79;86.85352;96111.75;;;;
2024/02/19 05:15:23;;;;;;;0.5;0.5;;;;;;;9.79;86.85352;96111.75;;;;
2024/02/19 05:16:23;;;;;;;0.5;0.5;;;;;;;9.79;86.85352;96111.75;;;;
2024/02/19 05:17:24;;;;;;;0.5;0.5;;;;;;;9.79;86.85352;96111.75;;;;
2024/02/19 05:18:24;;;;;;;0.5;0.5;;;;;;;9.79;86.85352;96111.75;;;;
2024/02/19 05:19:25;;;;;;;0.5;0.5;;;;;;;9.79;86.85352;96111.75;;;;
2024/02/19 05:20:25;;;;;;;0.5;0.5;;;;;;;9.79;86.85352;96111.75;;;;
2024/02/19 05:21:26;;;;;;;0.5;0.5;;;;;;;9.79;86.85352;96111.75;;;;
2024/02/19 05:22:26;;;;;;;0.6;0.6;;;;;;;9.72;87.23633;96107.3;;;;
2024/02/19 05:23:26;;;;;;;0.6;0.6;;;;;;;9.72;87.23633;96107.3;;;;
2024/02/19 05:24:27;;;;;;;0.6;0.6;;;;;;;9.72;87.23633;96107.3;;;;
2024/02/19 05:25:28;;;;;;;0.6;0.6;;;;;;;9.72;87.23633;96107.3;;;;
2024/02/19 05:26:28;;;;;;;0.6;0.6;;;;;;;9.72;87.23633;96107.3;;;;
2024/02/19 05:27:29;;;;;;;0.6;0.6;;;;;;;9.72;87.23633;96107.3;;;;
2024/02/19 05:28:30;;;;;;;0.6;0.6;;;;;;;9.72;87.23633;96107.3;;;;
2024/02/19 05:29:31;;;;;;;0.6;0.6;;;;;;;9.72;87.23633;96107.3;;;;
2024/02/19 05:30:32;;;;;;;0.6;0.6;;;;;;;9.72;87.23633;96107.3;;;;
2024/02/19 05:31:33;;;;;;;0.6;0.6;;;;;;;9.72;87.23633;96107.3;;;;
2024/02/19 05:32:36;;;;;;;11.2;8.35;;;;;;;9.84;87.21582;96111.97;;;;
2024/02/19 05:33:37;;;;;;;11.2;8.35;;;;;;;9.84;87.21582;96111.97;;;;
2024/02/19 05:34:37;;;;;;;11.2;8.35;;;;;;;9.84;87.21582;96111.97;;;;
2024/02/19 05:35:38;;;;;;;11.2;8.35;;;;;;;9.84;87.21582;96111.97;;;;
2024/02/19 05:36:38;;;;;;;11.2;8.35;;;;;;;9.84;87.21582;96111.97;;;;
2024/02/19 05:37:39;;;;;;;11.2;8.35;;;;;;;9.84;87.21582;96111.97;;;;
2024/02/19 05:38:39;;;;;;;11.2;8.35;;;;;;;9.84;87.21582;96111.97;;;;
2024/02/19 05:39:40;;;;;;;11.2;8.35;;;;;;;9.84;87.21582;96111.97;;;;
2024/02/19 05:40:40;;;;;;;11.2;8.35;;;;;;;9.84;87.21582;96111.97;;;;
2024/02/19 05:41:41;;;;;;;11.2;8.35;;;;;;;9.84;87.21582;96111.97;;;;
2024/02/19 05:42:42;;;;;;;11.2;8.35;;;;;;;9.84;87.21582;96111.97;;;;
2024/02/19 05:43:42;;;;;;;12.3;9.25;;;;;;;10.03;86.61035;96106.59;;;;
2024/02/19 05:44:43;;;;;;;12.3;9.25;;;;;;;10.03;86.61035;96106.59;;;;
2024/02/19 05:45:43;;;;;;;12.3;9.25;;;;;;;10.03;86.61035;96106.59;;;;
2024/02/19 05:46:44;;;;;;;12.3;9.25;;;;;;;10.03;86.61035;96106.59;;;;
2024/02/19 05:47:46;;;;;;;12.3;9.25;;;;;;;10.03;86.61035;96106.59;;;;
2024/02/19 05:48:46;;;;;;;12.3;9.25;;;;;;;10.03;86.61035;96106.59;;;;
2024/02/19 05:49:48;;;;;;;12.3;9.25;;;;;;;10.03;86.61035;96106.59;;;;
2024/02/19 05:50:48;;;;;;;12.3;9.25;;;;;;;10.03;86.61035;96106.59;;;;
2024/02/19 05:51:48;;;;;;;12.3;9.25;;;;;;;10.03;86.61035;96106.59;;;;
2024/02/19 05:52:49;;;;;;;12.3;9.25;;;;;;;10.03;86.61035;96106.59;;;;
2024/02/19 05:53:50;;;;;;;14.15;9.849999;;;;;;;10.05;86.75391;96112.52;;;;
2024/02/19 05:54:50;;;;;;;14.15;9.849999;;;;;;;10.05;86.75391;96112.52;;;;
2024/02/19 05:55:51;;;;;;;14.15;9.849999;;;;;;;10.05;86.75391;96112.52;;;;
2024/02/19 05:56:51;;;;;;;14.15;9.849999;;;;;;;10.05;86.75391;96112.52;;;;